Time;durP1;ratioP1;P1;durP2;ratioP2;P2;SDS_P1;SDS_P2;PMS_P1;PMS_P2;Temp;Humidity;BMP_temperature;BMP_pressure;BME280_temperature;BME280_humidity;BME280_pressure;Samples;Min_cycle;Max_cycle;Signal;HPM_P1;HPM_P2
2021/03/03 00:00:43;;;;;;;30.90;16.23;;;2.20;79.40;;;;;;5010275;28;20081;-66
2021/03/03 00:03:08;;;;;;;31.67;15.67;;;2.10;79.40;;;;;;5012190;28;20465;-67
2021/03/03 00:05:34;;;;;;;29.10;15.53;;;2.10;79.40;;;;;;5012066;28;20533;-66
2021/03/03 00:08:00;;;;;;;30.37;16.10;;;2.10;79.50;;;;;;5011673;28;20044;-66
2021/03/03 00:10:25;;;;;;;31.37;15.93;;;2.10;79.70;;;;;;5011610;28;20113;-70
2021/03/03 00:12:51;;;;;;;32.07;15.17;;;2.10;80.10;;;;;;5011799;28;20030;-71
2021/03/03 00:15:17;;;;;;;32.10;15.93;;;2.00;80.00;;;;;;5010266;28;20042;-67
2021/03/03 00:17:42;;;;;;;30.83;15.57;;;2.00;80.00;;;;;;5012081;28;20040;-66
2021/03/03 00:20:09;;;;;;;29.03;14.77;;;2.00;80.00;;;;;;5010264;28;20069;-67
2021/03/03 00:22:34;;;;;;;34.20;17.03;;;1.90;79.90;;;;;;5011336;28;20042;-67
2021/03/03 00:25:00;;;;;;;33.17;17.03;;;1.90;80.20;;;;;;5012026;28;20122;-67
2021/03/03 00:27:26;;;;;;;29.47;15.57;;;1.80;80.30;;;;;;5010815;28;20045;-66
2021/03/03 00:29:51;;;;;;;30.87;16.07;;;1.80;80.40;;;;;;5009612;28;20390;-66
2021/03/03 00:32:17;;;;;;;33.77;16.60;;;1.80;80.50;;;;;;4993331;28;20076;-67
2021/03/03 00:34:43;;;;;;;31.10;15.57;;;1.70;80.60;;;;;;4994168;28;20084;-67
2021/03/03 00:37:09;;;;;;;29.50;16.17;;;1.80;80.80;;;;;;4994249;28;20038;-66
2021/03/03 00:39:35;;;;;;;32.20;15.87;;;1.70;80.80;;;;;;4993034;28;20038;-66
2021/03/03 00:42:00;;;;;;;35.60;16.80;;;1.70;81.10;;;;;;5010660;28;20145;-67
2021/03/03 00:44:26;;;;;;;31.50;15.77;;;1.80;81.50;;;;;;4993777;28;20057;-66
2021/03/03 00:46:52;;;;;;;32.43;15.47;;;1.70;81.30;;;;;;5011093;28;20117;-66
2021/03/03 00:49:19;;;;;;;31.30;15.70;;;1.70;81.10;;;;;;5010082;28;20116;-66
2021/03/03 00:51:45;;;;;;;30.70;15.37;;;1.60;81.00;;;;;;5009307;28;20517;-66
2021/03/03 00:54:11;;;;;;;32.23;15.90;;;1.60;81.00;;;;;;5016720;28;20073;-66
2021/03/03 00:56:38;;;;;;;29.60;15.33;;;1.50;80.90;;;;;;5011521;28;20115;-67
2021/03/03 00:59:07;;;;;;;34.33;16.53;;;1.50;81.10;;;;;;4992707;28;20101;-67
2021/03/03 01:01:34;;;;;;;32.97;16.87;;;1.40;81.20;;;;;;5026161;28;20034;-66
2021/03/03 01:04:01;;;;;;;30.70;16.20;;;1.40;81.50;;;;;;5027079;28;20046;-67
2021/03/03 01:06:34;;;;;;;33.30;15.87;;;1.40;81.50;;;;;;5026913;28;20104;-67
2021/03/03 01:09:00;;;;;;;32.63;15.57;;;1.40;81.60;;;;;;5011479;28;20070;-66
2021/03/03 01:11:27;;;;;;;33.17;16.70;;;1.30;81.70;;;;;;4993108;28;20497;-66
2021/03/03 01:13:58;;;;;;;34.50;16.87;;;1.30;81.90;;;;;;4991275;28;20034;-66
2021/03/03 01:16:26;;;;;;;36.80;16.50;;;1.30;82.00;;;;;;5010661;28;20060;-67
2021/03/03 01:18:57;;;;;;;32.27;16.47;;;1.30;82.10;;;;;;4978295;28;20060;-66
2021/03/03 01:21:23;;;;;;;31.67;15.93;;;1.30;82.00;;;;;;5026034;28;20092;-66
2021/03/03 01:23:48;;;;;;;35.13;17.30;;;1.20;82.60;;;;;;5026299;28;20128;-66
2021/03/03 01:26:14;;;;;;;32.63;16.67;;;1.20;82.40;;;;;;5011473;28;20489;-67
2021/03/03 01:28:40;;;;;;;35.73;16.93;;;1.20;82.50;;;;;;5010351;28;20092;-67
2021/03/03 01:31:06;;;;;;;35.97;17.40;;;1.20;82.50;;;;;;5025656;28;20030;-66
2021/03/03 01:33:32;;;;;;;34.03;17.03;;;1.20;82.60;;;;;;5026360;28;20030;-66
2021/03/03 01:35:57;;;;;;;33.43;16.70;;;1.20;82.60;;;;;;5026046;28;20457;-66
2021/03/03 01:38:24;;;;;;;35.13;17.47;;;1.10;82.50;;;;;;5011167;28;20461;-66
2021/03/03 01:40:50;;;;;;;35.00;17.47;;;1.10;82.50;;;;;;5024822;28;20466;-66
2021/03/03 01:43:16;;;;;;;38.10;18.00;;;1.10;82.70;;;;;;5010963;28;20393;-66
2021/03/03 01:45:41;;;;;;;34.93;17.67;;;1.00;82.80;;;;;;5011178;28;20034;-66
2021/03/03 01:48:08;;;;;;;33.80;16.47;;;1.00;83.00;;;;;;5010402;28;20042;-66
2021/03/03 01:50:36;;;;;;;40.03;18.20;;;1.00;83.00;;;;;;4993130;28;20668;-66
2021/03/03 01:53:02;;;;;;;38.40;18.43;;;1.00;83.00;;;;;;5025996;28;20041;-66
2021/03/03 01:55:31;;;;;;;35.80;18.30;;;1.00;83.10;;;;;;5009080;28;20026;-66
2021/03/03 01:57:57;;;;;;;37.17;17.90;;;1.00;83.20;;;;;;4993507;28;20049;-66
2021/03/03 02:00:24;;;;;;;39.67;19.97;;;0.90;83.20;;;;;;5025413;28;20520;-66
2021/03/03 02:02:49;;;;;;;40.70;20.30;;;0.90;83.20;;;;;;4992994;28;20038;-66
2021/03/03 02:05:15;;;;;;;41.57;19.70;;;0.90;83.30;;;;;;4995801;28;20049;-66
2021/03/03 02:07:59;;;;;;;39.37;19.33;;;0.80;83.30;;;;;;5013549;28;20045;-68
2021/03/03 02:10:48;;;;;;;44.77;20.33;;;0.90;83.30;;;;;;5010833;28;20406;-66
2021/03/03 02:13:20;;;;;;;37.50;19.67;;;0.80;83.40;;;;;;5012770;28;20038;-66
2021/03/03 02:15:48;;;;;;;39.70;20.17;;;0.80;83.50;;;;;;5012987;28;20038;-66
2021/03/03 02:18:15;;;;;;;43.20;20.40;;;0.80;83.70;;;;;;5013188;28;20038;-66
2021/03/03 02:21:18;;;;;;;39.80;20.60;;;0.80;83.70;;;;;;5012330;28;20169;-66
2021/03/03 02:24:01;;;;;;;39.57;19.63;;;0.80;83.80;;;;;;4993522;28;20050;-67
2021/03/03 02:26:34;;;;;;;39.67;20.80;;;0.70;83.90;;;;;;4996993;28;20046;-71
2021/03/03 02:29:06;;;;;;;40.97;20.67;;;0.80;83.90;;;;;;5013910;28;20046;-71
2021/03/03 02:31:33;;;;;;;44.53;21.23;;;0.70;84.00;;;;;;5014034;28;20042;-71
2021/03/03 02:34:00;;;;;;;41.23;20.77;;;0.70;84.10;;;;;;5014139;28;20096;-71
2021/03/03 02:36:27;;;;;;;38.23;18.77;;;0.70;84.20;;;;;;5015205;28;20085;-72
2021/03/03 02:38:53;;;;;;;42.17;21.60;;;0.70;84.20;;;;;;5014823;28;20044;-71
2021/03/03 02:41:19;;;;;;;44.40;21.63;;;0.70;84.20;;;;;;5055287;22;20045;-67
2021/03/03 02:43:45;;;;;;;38.37;19.67;;;0.60;84.20;;;;;;5074002;28;20040;-66
2021/03/03 02:46:12;;;;;;;39.00;19.87;;;0.60;84.20;;;;;;5073468;28;20037;-67
2021/03/03 02:48:38;;;;;;;42.27;22.23;;;0.60;84.40;;;;;;5055988;28;20041;-66
2021/03/03 02:51:04;;;;;;;40.07;21.20;;;0.50;84.50;;;;;;5055747;28;20411;-67
2021/03/03 02:53:29;;;;;;;44.30;21.80;;;0.50;84.80;;;;;;5073693;28;20033;-67
2021/03/03 02:55:55;;;;;;;42.73;22.20;;;0.50;84.80;;;;;;5073913;28;20040;-67
2021/03/03 02:58:21;;;;;;;41.10;21.00;;;0.40;84.70;;;;;;5073650;28;20456;-67
2021/03/03 03:00:52;;;;;;;42.83;22.40;;;0.40;84.70;;;;;;5055417;28;20515;-68
2021/03/03 03:03:35;;;;;;;43.93;22.67;;;0.40;85.00;;;;;;5073696;28;20067;-67
2021/03/03 03:06:18;;;;;;;46.60;22.40;;;0.40;85.20;;;;;;5055485;28;20054;-65
2021/03/03 03:08:46;;;;;;;41.63;22.83;;;0.40;85.20;;;;;;5073087;28;20048;-64
2021/03/03 03:11:17;;;;;;;44.17;21.90;;;0.30;85.20;;;;;;5055141;28;20047;-64
2021/03/03 03:13:45;;;;;;;43.73;22.27;;;0.30;85.40;;;;;;5055540;28;20051;-65
2021/03/03 03:16:11;;;;;;;44.80;22.53;;;0.30;85.30;;;;;;5072959;28;20036;-65
2021/03/03 03:18:43;;;;;;;44.97;21.80;;;0.30;85.30;;;;;;5073232;28;20082;-65
2021/03/03 03:21:10;;;;;;;43.57;22.23;;;0.30;85.30;;;;;;5072477;28;20094;-65
2021/03/03 03:23:39;;;;;;;44.03;21.97;;;0.30;85.30;;;;;;5073270;28;20443;-64
2021/03/03 03:26:06;;;;;;;38.83;19.40;;;0.30;85.30;;;;;;5072728;28;20040;-64
2021/03/03 03:28:35;;;;;;;41.60;21.87;;;0.30;85.30;;;;;;5073246;28;20041;-65
2021/03/03 03:31:01;;;;;;;44.30;21.57;;;0.20;85.30;;;;;;5073640;28;20048;-65
2021/03/03 03:33:27;;;;;;;45.07;23.07;;;0.20;85.40;;;;;;5076962;28;20036;-65
2021/03/03 03:35:53;;;;;;;44.27;23.10;;;0.20;85.50;;;;;;5073760;28;20116;-65
2021/03/03 03:38:19;;;;;;;43.83;21.87;;;0.20;85.70;;;;;;5054827;28;20125;-65
2021/03/03 03:40:44;;;;;;;41.47;21.73;;;0.10;85.70;;;;;;5072344;28;20052;-65
2021/03/03 03:43:11;;;;;;;42.03;21.03;;;0.10;85.80;;;;;;5055015;28;20510;-64
2021/03/03 03:45:38;;;;;;;38.87;21.00;;;0.10;85.90;;;;;;5054518;28;20025;-64
2021/03/03 03:48:04;;;;;;;43.37;21.87;;;0.10;85.90;;;;;;5072719;28;20037;-65
2021/03/03 03:50:30;;;;;;;44.53;22.10;;;0.10;85.90;;;;;;5071785;28;20128;-67
2021/03/03 03:52:57;;;;;;;42.93;22.90;;;0.10;86.10;;;;;;5072655;28;20119;-64
2021/03/03 03:55:34;;;;;;;44.60;22.93;;;0.10;86.30;;;;;;5038144;28;20078;-65
2021/03/03 03:58:00;;;;;;;40.63;20.93;;;0.10;86.30;;;;;;5072229;28;20485;-65
2021/03/03 04:00:28;;;;;;;41.43;21.37;;;0.10;86.00;;;;;;5072193;28;20041;-65
2021/03/03 04:02:54;;;;;;;42.93;22.40;;;0.00;86.50;;;;;;5054051;28;20065;-65
2021/03/03 04:05:20;;;;;;;43.07;22.03;;;0.00;86.10;;;;;;5037984;28;20046;-64
2021/03/03 04:07:46;;;;;;;42.67;21.77;;;0.00;86.10;;;;;;5071734;28;20128;-62
2021/03/03 04:10:15;;;;;;;40.57;21.53;;;0.00;86.30;;;;;;5072183;28;20500;-65
2021/03/03 04:12:41;;;;;;;43.87;22.80;;;0.00;86.40;;;;;;5054044;28;20404;-67
2021/03/03 04:15:08;;;;;;;43.07;23.13;;;0.00;86.50;;;;;;5071724;28;20032;-67
2021/03/03 04:17:34;;;;;;;39.80;22.70;;;0.00;86.70;;;;;;5072169;28;20446;-68
2021/03/03 04:20:00;;;;;;;41.53;21.63;;;0.00;86.80;;;;;;5053389;28;20492;-67
2021/03/03 04:22:26;;;;;;;39.87;21.53;;;0.00;86.70;;;;;;5071456;28;20037;-68
2021/03/03 04:24:52;;;;;;;42.67;22.80;;;-0.10;86.50;;;;;;5072049;28;20036;-67
2021/03/03 04:27:17;;;;;;;43.97;22.53;;;-0.10;86.70;;;;;;5070953;28;20063;-67
2021/03/03 04:29:43;;;;;;;40.27;21.33;;;-0.10;86.70;;;;;;5037592;28;20020;-64
2021/03/03 04:32:09;;;;;;;41.60;21.63;;;-0.10;86.80;;;;;;5071659;28;20090;-67
2021/03/03 04:34:35;;;;;;;42.10;22.03;;;-0.10;87.00;;;;;;5037920;28;20388;-67
2021/03/03 04:37:01;;;;;;;39.77;20.90;;;-0.10;87.00;;;;;;5054092;28;20032;-67
2021/03/03 04:39:27;;;;;;;44.97;22.57;;;-0.20;87.00;;;;;;5053426;28;20234;-67
2021/03/03 04:41:53;;;;;;;45.80;22.27;;;-0.10;87.10;;;;;;5071246;28;20519;-67
2021/03/03 04:44:18;;;;;;;44.73;22.30;;;-0.20;87.00;;;;;;5071736;28;20029;-67
2021/03/03 04:46:44;;;;;;;41.90;22.23;;;-0.20;87.20;;;;;;5036602;28;20033;-67
2021/03/03 04:49:09;;;;;;;41.73;21.73;;;-0.20;87.20;;;;;;5071645;28;20124;-67
2021/03/03 04:51:35;;;;;;;40.97;20.43;;;-0.20;87.20;;;;;;5052858;28;20431;-63
2021/03/03 04:54:02;;;;;;;41.87;22.10;;;-0.20;87.20;;;;;;5071539;28;20540;-61
2021/03/03 04:56:31;;;;;;;42.07;22.43;;;-0.20;87.20;;;;;;5071390;28;20036;-63
2021/03/03 04:58:57;;;;;;;44.07;23.27;;;-0.20;87.20;;;;;;5070916;28;20036;-63
2021/03/03 05:01:22;;;;;;;39.33;21.97;;;-0.20;87.40;;;;;;5071168;28;20412;-63
2021/03/03 05:03:48;;;;;;;38.30;20.67;;;-0.20;87.30;;;;;;5070885;28;20040;-63
2021/03/03 05:06:13;;;;;;;38.63;20.67;;;-0.20;87.40;;;;;;5071404;28;20047;-63
2021/03/03 05:08:39;;;;;;;40.60;20.93;;;-0.30;87.50;;;;;;5036765;28;20040;-61
2021/03/03 05:11:08;;;;;;;40.67;21.67;;;-0.30;87.50;;;;;;5052628;28;20043;-61
2021/03/03 05:13:34;;;;;;;39.50;21.60;;;-0.30;87.70;;;;;;5053323;28;20040;-61
2021/03/03 05:15:59;;;;;;;39.23;20.50;;;-0.20;88.00;;;;;;5053527;28;20037;-63
2021/03/03 05:18:25;;;;;;;39.33;20.60;;;-0.20;88.30;;;;;;5070871;28;20063;-63
2021/03/03 05:20:51;;;;;;;38.07;20.63;;;-0.20;88.60;;;;;;5070734;28;20048;-63
2021/03/03 05:23:35;;;;;;;37.77;20.20;;;-0.10;88.90;;;;;;5070722;28;20515;-63
2021/03/03 05:26:02;;;;;;;39.87;21.10;;;0.00;89.30;;;;;;5053506;28;20032;-63
2021/03/03 05:28:29;;;;;;;33.60;19.47;;;0.10;89.30;;;;;;5070749;28;20036;-63
2021/03/03 05:30:55;;;;;;;37.50;21.17;;;0.10;89.00;;;;;;5052927;28;20036;-63
2021/03/03 05:33:25;;;;;;;34.07;19.93;;;0.20;89.00;;;;;;5070610;28;20040;-63
2021/03/03 05:35:51;;;;;;;34.42;19.60;;;0.30;89.20;;;;;;5071007;28;20101;-63
2021/03/03 05:38:17;;;;;;;36.10;19.87;;;0.30;89.20;;;;;;5070750;28;20473;-68
2021/03/03 05:40:45;;;;;;;33.73;19.37;;;0.40;89.20;;;;;;5073543;28;20036;-67
2021/03/03 05:43:11;;;;;;;37.33;19.83;;;0.40;89.10;;;;;;5075174;28;20043;-67
2021/03/03 05:45:38;;;;;;;32.33;18.33;;;0.50;89.00;;;;;;5074613;28;20032;-67
2021/03/03 05:48:05;;;;;;;31.13;18.73;;;0.50;88.80;;;;;;5074936;28;20450;-65
2021/03/03 05:50:32;;;;;;;37.00;19.77;;;0.50;89.00;;;;;;5056984;28;20036;-67
2021/03/03 05:52:58;;;;;;;34.80;19.07;;;0.50;89.40;;;;;;5074651;28;20044;-67
2021/03/03 05:55:24;;;;;;;40.50;20.83;;;0.50;89.70;;;;;;5075269;28;20067;-68
2021/03/03 05:57:51;;;;;;;39.77;21.17;;;0.60;89.80;;;;;;5074747;28;20455;-68
2021/03/03 06:00:17;;;;;;;44.03;21.63;;;0.70;89.80;;;;;;5074389;28;20029;-68
2021/03/03 06:02:43;;;;;;;42.13;20.50;;;0.70;89.50;;;;;;5074574;28;20392;-68
2021/03/03 06:05:10;;;;;;;39.73;20.03;;;0.70;89.80;;;;;;5056539;28;20059;-63
2021/03/03 06:07:37;;;;;;;41.27;20.37;;;0.80;89.90;;;;;;5074634;28;20028;-63
2021/03/03 06:10:06;;;;;;;39.77;19.50;;;0.90;89.80;;;;;;5074262;28;20029;-64
2021/03/03 06:12:31;;;;;;;51.10;20.07;;;0.90;89.80;;;;;;5074406;28;20036;-63
2021/03/03 06:14:58;;;;;;;51.27;21.67;;;1.00;89.60;;;;;;5074680;28;20033;-63
2021/03/03 06:17:24;;;;;;;48.83;21.67;;;1.00;89.70;;;;;;5074210;28;20040;-61
2021/03/03 06:19:51;;;;;;;95.37;22.53;;;1.00;89.60;;;;;;5074360;28;20499;-62
2021/03/03 06:22:25;;;;;;;108.30;20.90;;;1.10;89.90;;;;;;5074651;28;20055;-64
2021/03/03 06:24:53;;;;;;;55.77;21.93;;;1.20;89.80;;;;;;5078919;28;20051;-63
2021/03/03 06:27:21;;;;;;;68.93;22.00;;;1.20;89.70;;;;;;5075836;28;20500;-63
2021/03/03 06:30:09;;;;;;;67.43;22.13;;;1.20;89.80;;;;;;5074060;28;20474;-61
2021/03/03 06:33:03;;;;;;;49.53;20.37;;;1.30;90.00;;;;;;5073058;28;20032;-61
2021/03/03 06:35:43;;;;;;;43.07;19.40;;;1.30;90.10;;;;;;5038787;28;20033;-64
2021/03/03 06:38:12;;;;;;;48.63;20.05;;;1.40;90.00;;;;;;5039634;28;20124;-61
2021/03/03 06:40:48;;;;;;;45.87;18.30;;;1.50;90.00;;;;;;5072382;28;20037;-61
2021/03/03 06:43:28;;;;;;;94.70;18.20;;;1.50;90.00;;;;;;5058470;28;20128;-61
2021/03/03 06:45:54;;;;;;;82.90;19.33;;;1.60;89.60;;;;;;5058145;28;20044;-61
2021/03/03 06:48:36;;;;;;;46.23;18.43;;;1.60;89.50;;;;;;5073868;28;20071;-61
2021/03/03 06:51:21;;;;;;;43.40;18.67;;;1.60;89.90;;;;;;5071864;28;20055;-61
2021/03/03 06:53:47;;;;;;;69.90;16.70;;;1.70;90.00;;;;;;5073881;28;20520;-61
2021/03/03 06:56:12;;;;;;;77.67;17.13;;;1.80;89.50;;;;;;5073325;28;20115;-61
2021/03/03 06:58:38;;;;;;;51.00;17.60;;;1.80;89.80;;;;;;5073811;28;20403;-61
2021/03/03 07:01:04;;;;;;;41.70;17.23;;;1.90;90.10;;;;;;5071950;28;20090;-61
2021/03/03 07:03:36;;;;;;;34.27;17.00;;;1.90;90.30;;;;;;5046172;28;20492;-61
2021/03/03 07:06:03;;;;;;;46.17;16.73;;;2.10;90.40;;;;;;5072672;28;20037;-61
2021/03/03 07:08:30;;;;;;;44.87;16.67;;;2.20;90.50;;;;;;5064947;28;20049;-61
2021/03/03 07:10:56;;;;;;;41.43;16.33;;;2.30;90.30;;;;;;5034085;28;20033;-61
2021/03/03 07:13:40;;;;;;;71.87;19.00;;;2.40;90.20;;;;;;5042506;28;20439;-61
2021/03/03 07:16:08;;;;;;;85.03;17.53;;;2.50;90.00;;;;;;5047256;28;20040;-61
2021/03/03 07:18:38;;;;;;;76.80;17.47;;;2.60;89.90;;;;;;5053479;28;20033;-61
2021/03/03 07:21:06;;;;;;;85.15;16.60;;;2.70;89.80;;;;;;5045963;28;20032;-61
2021/03/03 07:23:43;;;;;;;71.40;18.53;;;2.80;89.70;;;;;;5032536;28;20520;-60
2021/03/03 07:26:12;;;;;;;63.40;17.43;;;2.80;88.80;;;;;;5034791;28;20057;-61
2021/03/03 07:28:39;;;;;;;47.97;16.93;;;2.80;88.80;;;;;;5031299;28;20044;-61
2021/03/03 07:31:06;;;;;;;50.17;17.43;;;2.90;89.10;;;;;;5046230;28;20064;-61
2021/03/03 07:33:32;;;;;;;45.20;16.93;;;3.00;89.80;;;;;;5052848;28;20025;-61
2021/03/03 07:36:05;;;;;;;40.80;17.57;;;3.20;90.00;;;;;;5034870;28;20055;-61
2021/03/03 07:38:33;;;;;;;37.93;17.00;;;3.40;90.20;;;;;;5053368;28;20040;-61
2021/03/03 07:41:12;;;;;;;75.77;18.13;;;3.60;90.20;;;;;;5029918;28;20041;-60
2021/03/03 07:43:43;;;;;;;52.53;15.70;;;3.70;89.60;;;;;;5052946;28;20128;-61
2021/03/03 07:46:10;;;;;;;57.78;18.08;;;3.80;88.70;;;;;;5052501;28;20079;-60
2021/03/03 07:48:36;;;;;;;37.73;15.93;;;3.90;88.50;;;;;;5049797;28;20034;-61
2021/03/03 07:51:06;;;;;;;33.47;16.73;;;3.90;89.10;;;;;;5051155;28;20072;-61
2021/03/03 07:53:37;;;;;;;39.40;17.03;;;4.10;89.40;;;;;;5048134;28;20041;-61
2021/03/03 07:56:06;;;;;;;30.00;15.93;;;4.30;89.70;;;;;;5047511;28;20081;-61
2021/03/03 07:58:33;;;;;;;36.07;16.07;;;4.50;90.20;;;;;;5036109;28;20037;-61
2021/03/03 08:01:00;;;;;;;47.63;17.20;;;4.70;90.30;;;;;;5030607;28;20116;-61
2021/03/03 08:03:43;;;;;;;37.63;17.40;;;5.00;90.00;;;;;;5050743;28;20032;-62
2021/03/03 08:06:21;;;;;;;64.47;17.53;;;5.20;89.20;;;;;;5042139;28;20041;-62
2021/03/03 08:09:05;;;;;;;34.00;17.57;;;5.40;87.30;;;;;;5050948;28;20401;-62
2021/03/03 08:11:34;;;;;;;40.47;17.93;;;5.60;87.40;;;;;;5044066;28;20063;-61
2021/03/03 08:14:29;;;;;;;42.53;18.77;;;5.80;88.10;;;;;;5033650;28;20041;-61
2021/03/03 08:17:07;;;;;;;38.03;18.90;;;6.00;86.70;;;;;;5034096;28;20124;-61
2021/03/03 08:20:00;;;;;;;37.83;18.07;;;6.20;86.00;;;;;;5048325;28;20601;-61
2021/03/03 08:22:49;;;;;;;41.23;19.53;;;6.40;86.30;;;;;;5030918;28;20037;-61
2021/03/03 08:25:50;;;;;;;37.43;18.60;;;6.70;85.90;;;;;;5035334;28;20041;-61
2021/03/03 08:28:22;;;;;;;41.20;19.47;;;7.20;87.30;;;;;;5050559;28;20069;-61
2021/03/03 08:31:14;;;;;;;42.43;21.40;;;7.70;85.20;;;;;;5033316;28;20439;-61
2021/03/03 08:33:41;;;;;;;41.87;20.80;;;8.10;83.60;;;;;;5046772;28;20042;-61
2021/03/03 08:36:11;;;;;;;40.03;20.90;;;8.40;83.50;;;;;;5050500;28;20086;-62
2021/03/03 08:38:37;;;;;;;37.03;20.90;;;8.80;82.50;;;;;;5060567;28;20411;-61
2021/03/03 08:41:15;;;;;;;38.53;20.87;;;9.30;81.60;;;;;;5037204;28;20040;-68
2021/03/03 08:43:48;;;;;;;37.27;20.47;;;9.60;79.70;;;;;;5061089;28;20075;-68
2021/03/03 08:46:20;;;;;;;37.03;20.77;;;10.00;80.20;;;;;;5040193;28;20067;-67
2021/03/03 08:49:09;;;;;;;36.03;20.80;;;10.60;77.50;;;;;;5041207;28;20087;-68
2021/03/03 08:51:47;;;;;;;36.13;19.67;;;11.40;79.00;;;;;;5038036;28;20164;-69
2021/03/03 08:54:14;;;;;;;31.60;19.02;;;12.90;76.90;;;;;;5056897;28;20041;-68
2021/03/03 08:56:47;;;;;;;32.25;18.65;;;14.10;74.90;;;;;;5059407;28;20393;-68
2021/03/03 08:59:28;;;;;;;28.80;18.45;;;15.50;74.10;;;;;;5040230;28;20366;-68
2021/03/03 09:02:06;;;;;;;;;;;17.10;72.50;;;;;;5040399;28;20071;-69
2021/03/03 09:04:46;;;;;;;26.13;17.00;;;18.60;70.00;;;;;;5022724;28;20376;-69
2021/03/03 09:07:29;;;;;;;23.98;16.20;;;20.00;65.30;;;;;;5051394;28;20040;-70
2021/03/03 09:10:04;;;;;;;23.85;16.38;;;21.20;62.00;;;;;;5037771;28;20116;-69
2021/03/03 09:12:31;;;;;;;20.63;14.93;;;22.20;57.20;;;;;;5039463;28;20045;-70
2021/03/03 09:15:00;;;;;;;21.45;15.35;;;22.80;54.70;;;;;;5025090;28;20467;-70
2021/03/03 09:17:28;;;;;;;25.45;15.18;;;23.30;51.80;;;;;;5019387;28;20088;-68
2021/03/03 09:20:00;;;;;;;21.77;15.15;;;23.90;51.00;;;;;;5039555;28;20033;-70
2021/03/03 09:22:33;;;;;;;22.00;15.15;;;24.70;49.10;;;;;;5040353;28;20481;-66
2021/03/03 09:25:11;;;;;;;21.23;14.20;;;25.40;46.70;;;;;;5039550;28;20039;-72
2021/03/03 09:27:48;;;;;;;21.17;14.05;;;25.90;44.20;;;;;;5045667;28;20443;-69
2021/03/03 09:30:15;;;;;;;19.83;14.05;;;26.20;42.80;;;;;;5058120;28;20037;-70
2021/03/03 09:32:41;;;;;;;20.15;14.05;;;26.70;41.60;;;;;;5057871;28;20037;-69
2021/03/03 09:35:07;;;;;;;19.55;14.40;;;27.20;40.30;;;;;;5025528;28;20082;-69
2021/03/03 09:37:39;;;;;;;18.85;13.27;;;27.50;39.50;;;;;;5025067;28;20174;-69
2021/03/03 09:40:07;;;;;;;19.30;13.48;;;27.70;38.00;;;;;;5038149;28;20144;-69
2021/03/03 09:42:42;;;;;;;19.52;13.82;;;28.10;36.80;;;;;;5040512;28;20086;-69
2021/03/03 09:45:10;;;;;;;20.02;13.88;;;28.30;36.80;;;;;;5031648;28;20554;-69
2021/03/03 09:47:38;;;;;;;18.15;12.82;;;29.00;36.20;;;;;;5040091;28;20064;-70
2021/03/03 09:50:21;;;;;;;19.35;12.77;;;29.30;34.70;;;;;;5038839;28;20410;-69
2021/03/03 09:52:50;;;;;;;20.10;13.43;;;29.70;34.40;;;;;;5019055;28;20040;-70
2021/03/03 09:55:18;;;;;;;17.30;12.85;;;30.30;33.80;;;;;;5057593;28;20115;-69
2021/03/03 09:57:50;;;;;;;18.35;13.05;;;30.80;32.10;;;;;;5017019;28;20121;-69
2021/03/03 10:00:18;;;;;;;18.33;12.75;;;31.20;31.50;;;;;;5048061;28;20059;-70
2021/03/03 10:02:50;;;;;;;16.88;12.35;;;31.40;31.10;;;;;;5049832;28;20099;-70
2021/03/03 10:05:21;;;;;;;18.85;12.90;;;31.60;30.00;;;;;;5031517;28;20037;-70
2021/03/03 10:08:13;;;;;;;17.25;12.05;;;31.90;29.50;;;;;;5048956;28;20047;-70
2021/03/03 10:10:42;;;;;;;16.35;12.43;;;31.70;28.40;;;;;;5038131;28;20132;-70
2021/03/03 10:13:18;;;;;;;16.85;11.50;;;30.60;28.40;;;;;;5032021;28;20033;-70
2021/03/03 10:15:44;;;;;;;16.27;12.02;;;29.20;28.90;;;;;;5049200;28;20048;-70
2021/03/03 10:18:11;;;;;;;18.35;11.95;;;28.40;29.30;;;;;;5049780;28;20037;-70
2021/03/03 10:20:44;;;;;;;19.63;12.95;;;27.70;29.10;;;;;;5048894;28;20045;-69
2021/03/03 10:23:22;;;;;;;17.52;12.90;;;26.80;28.90;;;;;;5031903;28;20041;-70
2021/03/03 10:26:01;;;;;;;21.88;13.20;;;25.60;29.10;;;;;;5045155;28;20041;-68
2021/03/03 10:28:28;;;;;;;22.65;13.27;;;24.90;30.20;;;;;;5053326;28;20124;-69
2021/03/03 10:30:57;;;;;;;19.02;13.23;;;24.50;30.10;;;;;;5052698;28;20068;-69
2021/03/03 10:33:33;;;;;;;20.90;14.27;;;24.20;30.00;;;;;;5053278;28;20497;-69
2021/03/03 10:36:04;;;;;;;17.85;12.75;;;23.60;30.60;;;;;;5053271;28;20075;-69
2021/03/03 10:38:31;;;;;;;23.15;14.27;;;23.20;31.00;;;;;;5018442;28;20057;-68
2021/03/03 10:40:59;;;;;;;22.58;15.23;;;22.60;30.50;;;;;;5052853;28;20452;-68
2021/03/03 10:43:26;;;;;;;24.05;13.82;;;21.90;31.20;;;;;;5034980;28;20045;-68
2021/03/03 10:46:09;;;;;;;23.30;14.40;;;21.40;32.30;;;;;;5035071;28;20121;-70
2021/03/03 10:48:35;;;;;;;21.40;14.02;;;21.20;32.60;;;;;;5034723;28;20516;-68
2021/03/03 10:51:03;;;;;;;21.98;13.55;;;20.90;33.00;;;;;;5052594;28;20041;-69
2021/03/03 10:53:48;;;;;;;21.88;14.93;;;21.00;33.40;;;;;;5048060;28;20033;-68
2021/03/03 10:56:34;;;;;;;21.90;13.65;;;21.10;32.80;;;;;;5045884;28;20033;-68
2021/03/03 10:59:28;;;;;;;25.70;14.55;;;21.00;33.00;;;;;;5034345;28;20033;-68
2021/03/03 11:01:58;;;;;;;26.17;15.15;;;20.90;33.40;;;;;;5034081;28;20512;-68
2021/03/03 11:04:44;;;;;;;22.00;14.25;;;20.50;33.80;;;;;;5052868;28;20037;-68
2021/03/03 11:07:11;;;;;;;25.00;14.40;;;20.40;34.80;;;;;;5048782;28;20032;-68
2021/03/03 11:09:38;;;;;;;25.10;14.63;;;20.60;34.60;;;;;;5033477;28;20516;-68
2021/03/03 11:12:05;;;;;;;27.45;15.15;;;20.90;34.30;;;;;;5050122;28;20052;-68
2021/03/03 11:14:31;;;;;;;25.48;15.45;;;21.30;34.20;;;;;;5051302;28;20174;-69
2021/03/03 11:16:58;;;;;;;22.88;14.98;;;21.50;33.70;;;;;;5048686;28;20034;-68
2021/03/03 11:19:25;;;;;;;23.88;13.93;;;21.60;33.70;;;;;;5030636;28;20037;-69
2021/03/03 11:21:52;;;;;;;24.15;14.50;;;21.60;33.70;;;;;;5026529;28;20041;-68
2021/03/03 11:24:19;;;;;;;22.83;14.00;;;21.60;33.70;;;;;;5049920;28;20040;-68
2021/03/03 11:26:45;;;;;;;27.98;14.90;;;21.40;33.70;;;;;;5052245;28;20378;-69
2021/03/03 11:29:12;;;;;;;22.60;14.00;;;21.10;33.50;;;;;;5051365;28;20486;-68
2021/03/03 11:31:38;;;;;;;26.70;14.75;;;20.90;34.20;;;;;;5052101;28;20493;-69
2021/03/03 11:34:05;;;;;;;26.58;15.48;;;21.40;35.10;;;;;;5034363;28;20044;-69
2021/03/03 11:36:32;;;;;;;24.20;14.75;;;22.00;34.50;;;;;;5050792;28;20460;-69
2021/03/03 11:38:57;;;;;;;24.65;14.77;;;22.20;33.60;;;;;;5051942;28;20401;-69
2021/03/03 11:41:23;;;;;;;29.73;15.13;;;22.10;32.60;;;;;;5032651;28;20037;-68
2021/03/03 11:43:50;;;;;;;23.27;14.45;;;21.60;33.00;;;;;;5050613;28;20044;-68
2021/03/03 11:46:19;;;;;;;26.35;15.10;;;21.10;33.00;;;;;;5033953;28;20037;-69
2021/03/03 11:48:45;;;;;;;23.50;15.02;;;20.40;33.30;;;;;;5051659;28;20037;-68
2021/03/03 11:51:11;;;;;;;22.88;14.60;;;19.70;34.30;;;;;;5027742;28;20132;-68
2021/03/03 11:53:37;;;;;;;23.85;14.20;;;19.20;35.20;;;;;;5051373;28;20032;-71
2021/03/03 11:56:03;;;;;;;28.48;15.20;;;18.70;36.00;;;;;;5051919;28;20031;-70
2021/03/03 11:58:29;;;;;;;27.25;15.57;;;18.60;36.90;;;;;;5034419;28;20051;-69
2021/03/03 12:00:54;;;;;;;25.60;15.27;;;18.60;37.20;;;;;;5051501;28;20028;-68
2021/03/03 12:03:20;;;;;;;26.98;15.60;;;18.90;37.80;;;;;;5052249;28;20480;-70
2021/03/03 12:05:46;;;;;;;26.88;14.52;;;19.40;37.90;;;;;;5052031;28;20143;-70
2021/03/03 12:08:11;;;;;;;25.00;14.48;;;20.00;38.10;;;;;;5051644;28;20587;-70
2021/03/03 12:10:38;;;;;;;28.27;15.32;;;20.20;37.10;;;;;;5033585;28;20026;-69
2021/03/03 12:13:07;;;;;;;26.50;15.55;;;20.00;36.50;;;;;;5051492;28;20386;-69
2021/03/03 12:15:33;;;;;;;26.48;15.07;;;19.60;36.40;;;;;;5051969;28;20032;-69
2021/03/03 12:17:59;;;;;;;25.45;14.65;;;19.30;36.70;;;;;;5050688;28;20106;-69
2021/03/03 12:20:27;;;;;;;26.90;15.15;;;19.00;37.20;;;;;;5049446;28;20061;-69
2021/03/03 12:22:53;;;;;;;27.17;15.35;;;18.80;37.40;;;;;;5050000;28;20143;-69
2021/03/03 12:25:19;;;;;;;26.25;15.38;;;18.60;37.60;;;;;;5049496;28;20033;-69
2021/03/03 12:27:45;;;;;;;25.80;15.07;;;18.30;38.20;;;;;;5049611;28;20048;-70
2021/03/03 12:30:11;;;;;;;26.90;15.45;;;18.20;38.50;;;;;;5049589;28;20032;-70
2021/03/03 12:32:37;;;;;;;28.92;16.10;;;18.20;38.90;;;;;;5031838;28;20033;-69
2021/03/03 12:35:04;;;;;;;24.10;15.10;;;18.40;39.50;;;;;;5051292;28;20128;-69
2021/03/03 12:37:30;;;;;;;22.48;13.05;;;19.10;39.90;;;;;;5051154;28;20036;-69
2021/03/03 12:39:55;;;;;;;24.27;14.90;;;20.00;39.90;;;;;;5016887;28;20037;-70
2021/03/03 12:42:21;;;;;;;28.10;15.02;;;20.70;38.50;;;;;;5051129;28;20037;-70
2021/03/03 12:44:47;;;;;;;26.45;14.80;;;21.30;37.70;;;;;;5050957;28;20044;-70